createdAt,value
2019-04-09T00:00:54.585Z,81.94
2019-04-09T00:01:59.354Z,82.04
2019-04-09T00:03:02.909Z,82.04
2019-04-09T00:04:07.028Z,82.01
2019-04-09T00:05:11.221Z,82.07
2019-04-09T00:06:15.270Z,82.09
2019-04-09T00:07:19.488Z,82.09
2019-04-09T00:08:23.636Z,82.22
2019-04-09T00:09:27.863Z,82.26
2019-04-09T00:10:32.733Z,82.31
2019-04-09T00:11:36.134Z,82.30
2019-04-09T00:12:40.268Z,82.23
2019-04-09T00:13:44.427Z,82.25
2019-04-09T00:14:48.791Z,82.28
2019-04-09T00:15:52.755Z,82.44
2019-04-09T00:16:56.858Z,82.46
2019-04-09T00:18:01.665Z,82.47
2019-04-09T00:19:06.130Z,82.38
2019-04-09T00:20:10.355Z,82.28
2019-04-09T00:21:13.480Z,82.37
2019-04-09T00:22:17.637Z,82.44
2019-04-09T00:23:22.494Z,82.70
2019-04-09T00:24:25.987Z,82.72
2019-04-09T00:25:30.667Z,82.70
2019-04-09T00:26:45.963Z,82.71
2019-04-09T00:27:38.939Z,82.67
2019-04-09T00:28:43.166Z,82.62
2019-04-09T00:29:46.672Z,82.73
2019-04-09T00:30:50.702Z,82.83
2019-04-09T00:31:55.855Z,82.89
2019-04-09T00:32:59.438Z,83.05
2019-04-09T00:34:03.272Z,83.07
2019-04-09T00:35:07.277Z,83.12
2019-04-09T00:36:11.480Z,83.28
2019-04-09T00:37:15.611Z,83.33
2019-04-09T00:38:20.765Z,83.42
2019-04-09T00:39:24.199Z,83.47
2019-04-09T00:40:28.196Z,83.58
2019-04-09T00:41:32.164Z,83.61
2019-04-09T00:42:36.361Z,83.63
2019-04-09T00:43:41.480Z,83.64
2019-04-09T00:44:44.729Z,83.81
2019-04-09T00:45:48.961Z,83.87
2019-04-09T00:46:53.271Z,83.90
2019-04-09T00:47:57.512Z,84.10
2019-04-09T00:49:01.157Z,84.19
2019-04-09T00:50:06.465Z,84.25
2019-04-09T00:51:10.451Z,84.33
2019-04-09T00:52:13.802Z,84.34
2019-04-09T00:53:17.915Z,84.32
2019-04-09T00:54:22.142Z,84.31
2019-04-09T00:55:26.726Z,84.30
2019-04-09T00:56:30.384Z,84.33
2019-04-09T00:57:34.696Z,84.21
2019-04-09T00:58:38.854Z,84.09
2019-04-09T00:59:42.928Z,84.05
2019-04-09T01:00:48.754Z,83.98
2019-04-09T01:01:51.340Z,84.01
2019-04-09T01:02:55.416Z,83.88
2019-04-09T01:03:59.472Z,83.90
2019-04-09T01:05:04.669Z,83.86
2019-04-09T01:06:08.903Z,83.95
2019-04-09T01:07:12.385Z,84.04
2019-04-09T01:08:16.283Z,83.96
2019-04-09T01:09:20.944Z,83.94
2019-04-09T01:10:24.524Z,83.93
2019-04-09T01:11:29.641Z,83.87
2019-04-09T01:12:32.791Z,83.75
2019-04-09T01:13:37.040Z,83.64
2019-04-09T01:14:42.071Z,83.65
2019-04-09T01:15:45.243Z,83.69
2019-04-09T01:16:49.403Z,83.69
2019-04-09T01:17:54.325Z,83.72
2019-04-09T01:19:08.468Z,83.59
2019-04-09T01:20:01.789Z,83.63
2019-04-09T01:21:06.914Z,83.63
2019-04-09T01:22:10.284Z,83.58
2019-04-09T01:23:14.214Z,83.60
2019-04-09T01:24:27.718Z,83.49
2019-04-09T01:25:22.505Z,83.46
2019-04-09T01:26:26.706Z,83.56
2019-04-09T01:27:30.983Z,83.53
2019-04-09T01:28:35.261Z,83.39
2019-04-09T01:29:39.079Z,83.42
2019-04-09T01:30:43.998Z,83.36
2019-04-09T01:31:48.305Z,83.32
2019-04-09T01:32:51.716Z,83.17
2019-04-09T01:33:55.854Z,83.28
2019-04-09T01:34:59.928Z,83.38
2019-04-09T01:36:03.987Z,83.39
2019-04-09T01:37:08.434Z,83.38
2019-04-09T01:38:12.368Z,83.43
2019-04-09T01:39:16.449Z,83.43
2019-04-09T01:40:23.815Z,83.45
2019-04-09T01:41:26.983Z,83.41
2019-04-09T01:42:31.197Z,83.49
2019-04-09T01:43:35.155Z,83.54
2019-04-09T01:44:39.217Z,83.52
2019-04-09T01:45:43.839Z,83.48
2019-04-09T01:46:47.518Z,83.49
2019-04-09T01:47:51.763Z,83.54
2019-04-09T01:48:55.896Z,83.56
2019-04-09T01:50:00.959Z,83.55
2019-04-09T01:51:04.316Z,83.55
2019-04-09T01:52:08.204Z,83.66
2019-04-09T01:53:12.477Z,83.61
2019-04-09T01:54:16.657Z,83.84
2019-04-09T01:55:21.566Z,83.91
2019-04-09T01:56:24.901Z,83.94
2019-04-09T01:57:41.721Z,83.92
2019-04-09T01:58:43.496Z,84.04
2019-04-09T01:59:47.526Z,84.13
2019-04-09T02:00:52.507Z,84.14
2019-04-09T02:01:56.944Z,84.08
2019-04-09T02:03:00.351Z,84.04
2019-04-09T02:04:04.389Z,84.01
2019-04-09T02:05:09.046Z,83.95
2019-04-09T02:06:12.727Z,83.91
2019-04-09T02:07:16.851Z,83.85
2019-04-09T02:08:21.994Z,83.78
2019-04-09T02:09:25.428Z,83.73
2019-04-09T02:10:29.401Z,83.67
2019-04-09T02:11:33.917Z,83.69
2019-04-09T02:12:37.735Z,83.52
2019-04-09T02:13:42.643Z,83.44
2019-04-09T02:14:46.198Z,83.32
2019-04-09T02:15:50.278Z,83.28
2019-04-09T02:16:54.526Z,83.16
2019-04-09T02:17:59.509Z,83.17
2019-04-09T02:19:02.999Z,83.24
2019-04-09T02:20:07.107Z,83.31
2019-04-09T02:21:11.438Z,83.25
2019-04-09T02:22:15.463Z,83.25
2019-04-09T02:23:20.070Z,83.27
2019-04-09T02:24:24.464Z,83.27
2019-04-09T02:25:28.597Z,83.31
2019-04-09T02:26:32.804Z,83.27
2019-04-09T02:27:43.936Z,83.30
2019-04-09T02:28:40.477Z,83.36
2019-04-09T02:29:44.629Z,83.39
2019-04-09T02:30:50.082Z,83.46
2019-04-09T02:31:53.515Z,83.46
2019-04-09T02:32:58.624Z,83.48
2019-04-09T02:34:02.773Z,83.54
2019-04-09T02:35:05.827Z,83.55
2019-04-09T02:36:10.137Z,83.64
2019-04-09T02:37:15.323Z,83.61
2019-04-09T02:38:19.241Z,83.55
2019-04-09T02:39:22.600Z,83.50
2019-04-09T02:40:27.585Z,83.45
2019-04-09T02:41:31.729Z,83.43
2019-04-09T02:42:35.199Z,83.40
2019-04-09T02:43:39.252Z,83.55
2019-04-09T02:44:43.748Z,83.60
2019-04-09T02:45:47.566Z,83.70
2019-04-09T02:46:51.768Z,83.69
2019-04-09T02:47:56.640Z,83.72
2019-04-09T02:49:00.125Z,83.79
2019-04-09T02:50:04.321Z,83.94
2019-04-09T02:51:09.392Z,84.17
2019-04-09T02:52:13.505Z,84.21
2019-04-09T02:53:16.838Z,84.25
2019-04-09T02:54:20.900Z,84.31
2019-04-09T02:55:25.200Z,84.26
2019-04-09T02:56:30.339Z,84.34
2019-04-09T02:57:37.941Z,84.33
2019-04-09T02:58:38.786Z,84.36
2019-04-09T02:59:42.738Z,84.33
2019-04-09T03:00:46.387Z,84.29
2019-04-09T03:01:50.366Z,84.36
2019-04-09T03:02:54.785Z,84.43
2019-04-09T03:03:58.700Z,84.53
2019-04-09T03:05:02.861Z,84.51
2019-04-09T03:06:07.546Z,84.58
2019-04-09T03:07:11.338Z,84.70
2019-04-09T03:08:15.454Z,84.79
2019-04-09T03:09:20.278Z,84.70
2019-04-09T03:10:24.598Z,84.67
2019-04-09T03:11:27.979Z,84.78
2019-04-09T03:12:32.121Z,84.79
2019-04-09T03:13:37.078Z,84.80
2019-04-09T03:14:40.626Z,84.73
2019-04-09T03:15:45.294Z,84.69
2019-04-09T03:16:48.830Z,84.75
2019-04-09T03:17:53.140Z,84.69
2019-04-09T03:18:58.193Z,84.82
2019-04-09T03:20:01.659Z,84.84
2019-04-09T03:21:06.388Z,84.86
2019-04-09T03:22:10.972Z,84.82
2019-04-09T03:23:13.954Z,84.85
2019-04-09T03:24:18.567Z,84.94
2019-04-09T03:25:22.244Z,84.95
2019-04-09T03:26:26.865Z,84.93
2019-04-09T03:27:30.765Z,84.97
2019-04-09T03:28:35.216Z,85.03
2019-04-09T03:29:39.133Z,85.01
2019-04-09T03:30:44.493Z,85.10
2019-04-09T03:31:47.954Z,85.19
2019-04-09T03:32:52.034Z,85.36
2019-04-09T03:33:57.243Z,85.32
2019-04-09T03:35:00.735Z,85.30
2019-04-09T03:36:04.806Z,85.25
2019-04-09T03:37:08.460Z,85.23
2019-04-09T03:38:13.587Z,85.35
2019-04-09T03:39:17.682Z,85.73
2019-04-09T03:40:21.020Z,85.75
2019-04-09T03:41:25.049Z,85.69
2019-04-09T03:42:29.139Z,85.64
2019-04-09T03:43:33.409Z,85.67
2019-04-09T03:44:37.727Z,85.53
2019-04-09T03:45:42.863Z,85.38
2019-04-09T03:46:45.998Z,85.30
2019-04-09T03:47:50.637Z,85.25
2019-04-09T03:48:54.272Z,85.22
2019-04-09T03:49:58.834Z,85.23
2019-04-09T03:51:02.640Z,85.20
2019-04-09T03:52:07.304Z,85.26
2019-04-09T03:53:11.046Z,85.35
2019-04-09T03:54:15.077Z,85.37
2019-04-09T03:55:20.250Z,85.42
2019-04-09T03:56:23.783Z,85.46
2019-04-09T03:57:28.037Z,85.51
2019-04-09T03:58:31.970Z,85.55
2019-04-09T03:59:36.050Z,85.67
2019-04-09T04:00:41.223Z,85.67
2019-04-09T04:01:44.620Z,85.71
2019-04-09T04:02:48.905Z,85.81
2019-04-09T04:03:52.755Z,85.83
2019-04-09T04:04:56.990Z,85.76
2019-04-09T04:06:01.238Z,85.70
2019-04-09T04:07:05.333Z,85.72
2019-04-09T04:08:09.698Z,85.71
2019-04-09T04:09:14.359Z,85.78
2019-04-09T04:10:17.939Z,85.79
2019-04-09T04:11:22.073Z,85.85
2019-04-09T04:12:26.310Z,85.92
2019-04-09T04:13:31.026Z,85.93
2019-04-09T04:14:34.773Z,85.91
2019-04-09T04:15:39.046Z,85.87
2019-04-09T04:16:43.183Z,85.83
2019-04-09T04:17:47.247Z,85.86
2019-04-09T04:18:52.497Z,85.86
2019-04-09T04:19:56.006Z,85.84
2019-04-09T04:21:00.288Z,85.82
2019-04-09T04:22:04.451Z,85.81
2019-04-09T04:23:08.778Z,85.78
2019-04-09T04:24:12.497Z,85.73
2019-04-09T04:25:16.682Z,85.72
2019-04-09T04:26:20.821Z,85.66
2019-04-09T04:27:25.458Z,85.66
2019-04-09T04:28:33.218Z,85.71
2019-04-09T04:29:33.512Z,85.70
2019-04-09T04:30:38.421Z,85.81
2019-04-09T04:31:42.165Z,85.79
2019-04-09T04:32:45.964Z,85.82
2019-04-09T04:33:50.225Z,85.81
2019-04-09T04:34:55.300Z,85.82
2019-04-09T04:35:59.477Z,85.76
2019-04-09T04:37:02.812Z,85.76
2019-04-09T04:38:06.977Z,85.79
2019-04-09T04:39:11.135Z,85.77
2019-04-09T04:40:15.629Z,85.72
2019-04-09T04:41:21.149Z,85.72
2019-04-09T04:42:23.776Z,85.64
2019-04-09T04:43:28.110Z,85.58
2019-04-09T04:44:32.756Z,85.59
2019-04-09T04:45:36.465Z,85.59
2019-04-09T04:46:40.701Z,85.56
2019-04-09T04:47:44.863Z,85.48
2019-04-09T04:48:49.056Z,85.47
2019-04-09T04:49:53.878Z,85.44
2019-04-09T04:50:57.826Z,85.37
2019-04-09T04:52:02.068Z,85.27
2019-04-09T04:53:06.418Z,85.26
2019-04-09T04:54:09.851Z,85.22
2019-04-09T04:55:14.809Z,85.10
2019-04-09T04:56:18.489Z,85.01
2019-04-09T04:57:24.030Z,84.96
2019-04-09T04:58:39.388Z,85.08
2019-04-09T04:59:31.852Z,85.16
2019-04-09T05:00:35.319Z,85.00
2019-04-09T05:01:39.440Z,84.94
2019-04-09T05:02:43.759Z,84.88
2019-04-09T05:03:48.721Z,84.92
2019-04-09T05:04:52.904Z,84.93
2019-04-09T05:05:55.987Z,84.82
2019-04-09T05:07:00.169Z,84.78
2019-04-09T05:08:04.248Z,84.78
2019-04-09T05:09:08.447Z,84.71
2019-04-09T05:10:13.110Z,84.76
2019-04-09T05:11:16.921Z,84.53
2019-04-09T05:12:21.533Z,84.54
2019-04-09T05:13:25.263Z,84.61
2019-04-09T05:14:29.731Z,84.64
2019-04-09T05:15:33.546Z,84.49
2019-04-09T05:16:37.734Z,84.55
2019-04-09T05:17:42.661Z,84.46
2019-04-09T05:18:46.108Z,84.45
2019-04-09T05:19:50.849Z,84.36
2019-04-09T05:20:54.640Z,84.30
2019-04-09T05:21:58.858Z,84.18
2019-04-09T05:23:03.346Z,84.06
2019-04-09T05:24:07.930Z,84.10
2019-04-09T05:25:11.312Z,84.04
2019-04-09T05:26:15.839Z,84.07
2019-04-09T05:27:20.421Z,84.11
2019-04-09T05:28:24.930Z,83.98
2019-04-09T05:29:28.087Z,83.89
2019-04-09T05:30:33.675Z,83.92
2019-04-09T05:31:36.355Z,83.93
2019-04-09T05:32:40.526Z,84.08
2019-04-09T05:33:44.980Z,83.94
2019-04-09T05:34:48.915Z,84.06
2019-04-09T05:35:53.653Z,84.13
2019-04-09T05:36:58.333Z,84.16
2019-04-09T05:38:01.379Z,83.97
2019-04-09T05:39:05.571Z,83.69
2019-04-09T05:40:09.860Z,83.54
2019-04-09T05:41:14.030Z,83.36
2019-04-09T05:42:19.192Z,83.42
2019-04-09T05:43:22.473Z,83.47
2019-04-09T05:44:27.464Z,83.16
2019-04-09T05:45:30.784Z,82.92
2019-04-09T05:46:35.372Z,82.74
2019-04-09T05:47:39.188Z,82.69
2019-04-09T05:48:43.523Z,82.54
2019-04-09T05:49:48.557Z,82.33
2019-04-09T05:50:52.248Z,81.90
2019-04-09T05:51:56.228Z,81.61
2019-04-09T05:53:00.304Z,81.65
2019-04-09T05:54:04.599Z,81.71
2019-04-09T05:55:08.814Z,81.81
2019-04-09T05:56:13.898Z,81.93
2019-04-09T05:57:17.234Z,81.82
2019-04-09T05:58:21.502Z,81.57
2019-04-09T05:59:25.720Z,81.57
2019-04-09T06:00:30.357Z,81.54
2019-04-09T06:01:34.489Z,81.67
2019-04-09T06:02:38.388Z,81.89
2019-04-09T06:03:43.078Z,82.11
2019-04-09T06:04:47.674Z,82.13
2019-04-09T06:05:51.229Z,82.12
2019-04-09T06:06:56.381Z,81.89
2019-04-09T06:07:59.774Z,81.91
2019-04-09T06:09:04.003Z,81.46
2019-04-09T06:10:07.715Z,81.20
2019-04-09T06:11:11.992Z,81.21
2019-04-09T06:12:16.441Z,81.08
2019-04-09T06:13:20.467Z,80.69
2019-04-09T06:14:25.332Z,80.39
2019-04-09T06:15:28.899Z,80.20
2019-04-09T06:16:33.559Z,80.13
2019-04-09T06:17:37.316Z,80.30
2019-04-09T06:18:42.540Z,80.29
2019-04-09T06:19:46.323Z,80.50
2019-04-09T06:20:50.082Z,80.81
2019-04-09T06:21:54.993Z,81.01
2019-04-09T06:22:59.386Z,81.03
2019-04-09T06:24:02.735Z,81.40
2019-04-09T06:25:08.746Z,80.94
2019-04-09T06:26:11.204Z,80.74
2019-04-09T06:27:16.207Z,80.83
2019-04-09T06:28:19.758Z,80.94
2019-04-09T06:29:25.105Z,80.84
2019-04-09T06:30:28.157Z,81.14
2019-04-09T06:31:32.749Z,81.11
2019-04-09T06:32:37.273Z,81.14
2019-04-09T06:33:42.070Z,80.97
2019-04-09T06:34:45.180Z,80.51
2019-04-09T06:35:49.671Z,80.38
2019-04-09T06:36:54.239Z,80.49
2019-04-09T06:37:57.936Z,80.02
2019-04-09T06:39:02.145Z,79.21
2019-04-09T06:40:06.338Z,79.18
2019-04-09T06:41:10.936Z,79.46
2019-04-09T06:42:15.016Z,79.26
2019-04-09T06:43:19.229Z,78.68
2019-04-09T06:44:24.270Z,79.08
2019-04-09T06:45:28.071Z,79.34
2019-04-09T06:46:31.865Z,79.43
2019-04-09T06:47:36.860Z,79.58
2019-04-09T06:48:40.276Z,79.44
2019-04-09T06:49:44.505Z,79.59
2019-04-09T06:50:49.429Z,79.01
2019-04-09T06:51:55.204Z,78.79
2019-04-09T06:52:57.292Z,78.51
2019-04-09T06:54:01.846Z,78.75
2019-04-09T06:55:10.406Z,78.89
2019-04-09T06:56:10.027Z,78.26
2019-04-09T06:57:15.019Z,77.18
2019-04-09T06:58:18.637Z,77.06
2019-04-09T06:59:29.511Z,77.90
2019-04-09T07:00:27.155Z,77.98
2019-04-09T07:01:31.391Z,77.32
2019-04-09T07:02:35.869Z,77.88
2019-04-09T07:03:39.901Z,77.60
2019-04-09T07:04:44.100Z,77.65
2019-04-09T07:05:49.063Z,78.45
2019-04-09T07:06:53.467Z,78.42
2019-04-09T07:07:57.452Z,78.59
2019-04-09T07:09:01.858Z,77.16
2019-04-09T07:10:05.596Z,77.12
2019-04-09T07:11:15.363Z,76.73
2019-04-09T07:12:13.813Z,76.86
2019-04-09T07:13:18.023Z,77.14
2019-04-09T07:14:22.345Z,77.63
2019-04-09T07:15:27.019Z,78.35
2019-04-09T07:16:31.557Z,78.04
2019-04-09T07:17:35.879Z,77.51
2019-04-09T07:18:39.723Z,77.21
2019-04-09T07:19:43.429Z,76.81
2019-04-09T07:20:48.781Z,76.68
2019-04-09T07:21:52.822Z,76.93
2019-04-09T07:22:56.210Z,76.97
2019-04-09T07:24:00.378Z,76.84
2019-04-09T07:25:05.640Z,76.91
2019-04-09T07:26:11.607Z,76.53
2019-04-09T07:27:14.081Z,76.91
2019-04-09T07:28:17.397Z,77.01
2019-04-09T07:29:21.744Z,77.09
2019-04-09T07:30:26.993Z,77.24
2019-04-09T07:31:31.258Z,77.27
2019-04-09T07:32:40.522Z,76.47
2019-04-09T07:33:41.593Z,76.51
2019-04-09T07:34:43.428Z,77.15
2019-04-09T07:35:47.006Z,77.26
2019-04-09T07:36:51.238Z,76.79
2019-04-09T07:37:56.376Z,76.68
2019-04-09T07:38:59.733Z,76.52
2019-04-09T07:40:04.149Z,76.29
2019-04-09T07:41:09.555Z,76.04
2019-04-09T07:42:14.178Z,76.22
2019-04-09T07:43:22.794Z,76.32
2019-04-09T07:44:21.921Z,75.73
2019-04-09T07:45:25.509Z,76.03
2019-04-09T07:46:30.193Z,76.38
2019-04-09T07:47:34.599Z,76.39
2019-04-09T07:48:38.584Z,75.89
2019-04-09T07:49:42.931Z,75.71
2019-04-09T07:50:47.262Z,76.37
2019-04-09T07:51:51.678Z,75.97
2019-04-09T07:52:57.963Z,75.46
2019-04-09T07:54:02.213Z,75.48
2019-04-09T07:55:03.224Z,75.63
2019-04-09T07:56:07.476Z,75.25
2019-04-09T07:57:11.715Z,75.48
2019-04-09T07:58:15.949Z,75.66
2019-04-09T07:59:24.482Z,75.01
2019-04-09T08:00:27.055Z,75.09
2019-04-09T08:01:29.508Z,74.85
2019-04-09T08:02:33.368Z,74.37
2019-04-09T08:03:37.035Z,74.80
2019-04-09T08:04:42.894Z,73.84
2019-04-09T08:05:46.948Z,73.38
2019-04-09T08:06:51.035Z,73.58
2019-04-09T08:07:57.661Z,73.47
2019-04-09T08:08:58.417Z,73.09
2019-04-09T08:10:02.408Z,72.96
2019-04-09T08:11:07.555Z,73.75
2019-04-09T08:12:11.143Z,73.61
2019-04-09T08:13:18.070Z,73.66
2019-04-09T08:14:20.450Z,73.13
2019-04-09T08:15:24.232Z,73.54
2019-04-09T08:16:28.706Z,73.35
2019-04-09T08:17:40.708Z,73.10
2019-04-09T08:18:37.493Z,72.77
2019-04-09T08:19:41.043Z,73.20
2019-04-09T08:20:44.876Z,72.99
2019-04-09T08:21:49.134Z,73.13
2019-04-09T08:22:56.169Z,72.87
2019-04-09T08:23:59.784Z,73.44
2019-04-09T08:25:04.354Z,74.21
2019-04-09T08:26:08.568Z,74.20
2019-04-09T08:27:12.541Z,74.12
2019-04-09T08:28:20.310Z,73.33
2019-04-09T08:29:24.730Z,72.74
2019-04-09T08:30:29.159Z,72.78
2019-04-09T08:31:28.769Z,72.42
2019-04-09T08:32:37.990Z,72.00
2019-04-09T08:33:37.240Z,72.42
2019-04-09T08:34:41.844Z,72.92
2019-04-09T08:35:46.131Z,72.34
2019-04-09T08:36:50.080Z,72.79
2019-04-09T08:37:56.759Z,72.19
2019-04-09T08:39:02.697Z,72.24
2019-04-09T08:40:02.450Z,72.26
2019-04-09T08:41:06.645Z,72.01
2019-04-09T08:42:10.901Z,72.06
2019-04-09T08:43:16.131Z,71.98
2019-04-09T08:44:20.313Z,72.70
2019-04-09T08:45:25.394Z,71.87
2019-04-09T08:46:28.719Z,71.62
2019-04-09T08:47:37.305Z,71.61
2019-04-09T08:48:36.769Z,70.71
2019-04-09T08:49:40.304Z,70.69
2019-04-09T08:50:45.144Z,71.02
2019-04-09T08:51:49.598Z,71.56
2019-04-09T08:52:53.014Z,71.52
2019-04-09T08:53:58.264Z,71.01
2019-04-09T08:55:02.725Z,71.31
2019-04-09T08:56:06.882Z,71.42
2019-04-09T08:57:14.413Z,70.38
2019-04-09T08:58:14.076Z,70.13
2019-04-09T08:59:20.466Z,69.60
2019-04-09T09:00:53.580Z,69.45
2019-04-09T09:01:49.618Z,69.07
2019-04-09T09:02:39.186Z,68.98
2019-04-09T09:03:46.304Z,69.34
2019-04-09T09:04:51.883Z,70.06
2019-04-09T09:05:52.809Z,70.76
2019-04-09T09:06:52.095Z,67.90
2019-04-09T09:07:52.068Z,68.38
2019-04-09T09:08:58.953Z,68.15
2019-04-09T09:10:01.495Z,68.46
2019-04-09T09:11:04.672Z,70.48
2019-04-09T09:12:09.023Z,70.73
2019-04-09T09:13:17.522Z,68.03
2019-04-09T09:14:18.252Z,68.48
2019-04-09T09:15:22.728Z,68.84
2019-04-09T09:16:29.961Z,68.63
2019-04-09T09:17:30.857Z,68.84
2019-04-09T09:18:36.931Z,68.69
2019-04-09T09:19:38.674Z,68.79
2019-04-09T09:20:45.559Z,68.79
2019-04-09T09:21:47.042Z,67.37
2019-04-09T09:22:52.155Z,68.11
2019-04-09T09:23:57.953Z,69.32
2019-04-09T09:24:59.839Z,68.50
2019-04-09T09:26:06.716Z,67.78
2019-04-09T09:27:10.880Z,66.68
2019-04-09T09:28:12.406Z,66.81
2019-04-09T09:29:17.424Z,65.38
2019-04-09T09:30:23.748Z,66.16
2019-04-09T09:31:30.927Z,67.34
2019-04-09T09:32:29.277Z,67.91
2019-04-09T09:33:36.427Z,69.27
2019-04-09T09:34:37.755Z,68.15
2019-04-09T09:35:42.233Z,67.95
2019-04-09T09:36:46.193Z,67.63
2019-04-09T09:37:53.743Z,67.00
2019-04-09T09:38:55.745Z,66.18
2019-04-09T09:40:00.917Z,67.88
2019-04-09T09:41:05.928Z,66.20
2019-04-09T09:42:07.404Z,67.33
2019-04-09T09:43:14.375Z,64.58
2019-04-09T09:44:18.608Z,65.11
2019-04-09T09:45:20.710Z,64.52
2019-04-09T09:46:24.883Z,64.41
2019-04-09T09:47:29.028Z,65.29
2019-04-09T09:48:33.584Z,65.94
2019-04-09T09:49:37.077Z,66.45
2019-04-09T09:50:41.763Z,63.27
2019-04-09T09:51:47.535Z,65.00
2019-04-09T09:52:52.972Z,64.27
2019-04-09T09:53:55.110Z,64.58
2019-04-09T09:54:58.178Z,63.95
2019-04-09T09:56:04.809Z,64.72
2019-04-09T09:57:12.703Z,64.63
2019-04-09T09:58:13.442Z,64.31
2019-04-09T09:59:15.676Z,64.42
2019-04-09T10:00:19.998Z,65.61
2019-04-09T10:01:32.683Z,62.43
2019-04-09T10:02:35.358Z,63.13
2019-04-09T10:03:33.356Z,63.89
2019-04-09T10:04:36.788Z,64.43
2019-04-09T10:05:41.133Z,62.30
2019-04-09T10:06:47.875Z,65.04
2019-04-09T10:07:53.171Z,60.86
2019-04-09T10:08:54.119Z,60.88
2019-04-09T10:09:57.571Z,61.53
2019-04-09T10:11:03.022Z,61.90
2019-04-09T10:12:08.934Z,60.85
2019-04-09T10:13:10.333Z,61.27
2019-04-09T10:14:14.522Z,61.40
2019-04-09T10:15:23.117Z,62.41
2019-04-09T10:16:25.921Z,63.07
2019-04-09T10:17:33.284Z,62.91
2019-04-09T10:18:36.804Z,61.95
2019-04-09T10:19:38.088Z,62.65
2019-04-09T10:20:44.948Z,62.72
2019-04-09T10:21:49.282Z,63.50
2019-04-09T10:22:54.912Z,62.43
2019-04-09T10:24:05.520Z,63.69
2019-04-09T10:24:59.346Z,62.14
2019-04-09T10:26:07.134Z,62.47
2019-04-09T10:27:12.868Z,63.32
2019-04-09T10:28:11.641Z,62.64
2019-04-09T10:29:16.100Z,62.80
2019-04-09T10:30:20.431Z,63.91
2019-04-09T10:31:34.340Z,64.40
2019-04-09T10:32:28.627Z,63.70
2019-04-09T10:33:32.786Z,64.08
2019-04-09T10:34:38.003Z,63.51
2019-04-09T10:35:42.447Z,63.61
2019-04-09T10:36:45.630Z,63.40
2019-04-09T10:37:51.829Z,63.86
2019-04-09T10:38:57.419Z,63.59
2019-04-09T10:39:59.071Z,64.05
2019-04-09T10:41:15.871Z,64.35
2019-04-09T10:42:09.229Z,64.59
2019-04-09T10:43:12.408Z,63.11
2019-04-09T10:44:18.070Z,63.80
2019-04-09T10:45:22.820Z,63.68
2019-04-09T10:46:23.832Z,64.47
2019-04-09T10:47:28.796Z,63.91
2019-04-09T10:48:32.429Z,64.04
2019-04-09T10:49:38.285Z,64.50
2019-04-09T10:50:42.515Z,64.09
2019-04-09T10:51:45.888Z,63.50
2019-04-09T10:52:55.889Z,64.76
2019-04-09T10:53:54.366Z,64.91
2019-04-09T10:54:57.701Z,64.93
2019-04-09T10:56:02.005Z,63.76
2019-04-09T10:57:09.087Z,64.38
2019-04-09T10:58:17.776Z,63.53
2019-04-09T10:59:15.436Z,64.01
2019-04-09T11:00:18.944Z,64.60
2019-04-09T11:01:34.102Z,63.92
2019-04-09T11:02:30.673Z,64.68
2019-04-09T11:03:35.797Z,63.16
2019-04-09T11:04:35.883Z,62.67
2019-04-09T11:05:40.051Z,63.06
2019-04-09T11:06:45.321Z,62.58
2019-04-09T11:07:48.544Z,62.80
2019-04-09T11:08:52.806Z,62.80
2019-04-09T11:09:59.175Z,62.44
2019-04-09T11:11:02.380Z,63.33
2019-04-09T11:12:05.510Z,62.02
2019-04-09T11:13:10.243Z,61.32
2019-04-09T11:14:14.605Z,62.77
2019-04-09T11:15:19.658Z,61.81
2019-04-09T11:16:23.198Z,62.01
2019-04-09T11:17:27.770Z,61.99
2019-04-09T11:18:31.830Z,61.24
2019-04-09T11:19:35.371Z,61.63
2019-04-09T11:20:40.377Z,62.74
2019-04-09T11:21:44.499Z,61.38
2019-04-09T11:22:50.999Z,61.22
2019-04-09T11:23:56.063Z,61.84
2019-04-09T11:25:01.026Z,61.36
2019-04-09T11:26:00.834Z,62.18
2019-04-09T11:27:05.412Z,62.57
2019-04-09T11:28:09.834Z,62.50
2019-04-09T11:29:13.676Z,61.55
2019-04-09T11:30:18.186Z,61.62
2019-04-09T11:31:22.364Z,61.84
2019-04-09T11:32:26.554Z,61.99
2019-04-09T11:33:30.954Z,62.18
2019-04-09T11:34:35.346Z,60.78
2019-04-09T11:35:39.369Z,59.43
2019-04-09T11:36:43.559Z,60.47
2019-04-09T11:37:48.723Z,62.07
2019-04-09T11:38:52.846Z,62.35
2019-04-09T11:39:56.588Z,60.82
2019-04-09T11:41:01.364Z,60.69
2019-04-09T11:42:05.430Z,61.37
2019-04-09T11:43:08.990Z,61.61
2019-04-09T11:44:13.301Z,60.41
2019-04-09T11:45:17.676Z,60.31
2019-04-09T11:46:22.144Z,60.69
2019-04-09T11:47:26.029Z,61.29
2019-04-09T11:48:30.242Z,61.70
2019-04-09T11:49:34.487Z,61.52
2019-04-09T11:50:38.685Z,61.94
2019-04-09T11:51:42.949Z,61.92
2019-04-09T11:52:47.272Z,61.38
2019-04-09T11:53:52.349Z,62.52
2019-04-09T11:54:56.594Z,60.51
2019-04-09T11:56:00.101Z,58.76
2019-04-09T11:57:04.439Z,58.85
2019-04-09T11:58:08.935Z,58.48
2019-04-09T11:59:18.786Z,57.95
2019-04-09T12:00:17.488Z,57.97
2019-04-09T12:01:21.405Z,58.29
2019-04-09T12:02:26.284Z,57.46
2019-04-09T12:03:30.764Z,56.15
2019-04-09T12:04:34.265Z,56.00
2019-04-09T12:05:38.593Z,55.85
2019-04-09T12:06:42.767Z,56.91
2019-04-09T12:07:46.944Z,58.05
2019-04-09T12:08:51.192Z,58.07
2019-04-09T12:09:56.113Z,58.18
2019-04-09T12:11:00.655Z,58.34
2019-04-09T12:12:03.880Z,56.90
2019-04-09T12:13:08.508Z,56.83
2019-04-09T12:14:13.048Z,57.02
2019-04-09T12:15:16.693Z,56.46
2019-04-09T12:16:21.462Z,56.84
2019-04-09T12:17:26.018Z,58.27
2019-04-09T12:18:29.413Z,58.43
2019-04-09T12:19:34.694Z,57.66
2019-04-09T12:20:38.355Z,56.70
2019-04-09T12:21:42.163Z,57.44
2019-04-09T12:22:46.416Z,56.80
2019-04-09T12:23:50.970Z,56.47
2019-04-09T12:24:55.575Z,57.00
2019-04-09T12:26:00.176Z,55.53
2019-04-09T12:27:06.156Z,55.70
2019-04-09T12:28:08.725Z,55.58
2019-04-09T12:29:18.931Z,55.76
2019-04-09T12:30:17.366Z,57.22
2019-04-09T12:31:20.455Z,56.60
2019-04-09T12:32:26.369Z,56.54
2019-04-09T12:33:29.318Z,56.73
2019-04-09T12:34:33.217Z,56.64
2019-04-09T12:35:38.318Z,56.52
2019-04-09T12:36:42.749Z,56.34
2019-04-09T12:37:46.067Z,56.72
2019-04-09T12:38:50.184Z,57.73
2019-04-09T12:39:54.329Z,57.92
2019-04-09T12:40:59.310Z,57.76
2019-04-09T12:42:02.922Z,56.65
2019-04-09T12:43:07.202Z,56.87
2019-04-09T12:44:12.089Z,57.03
2019-04-09T12:45:16.150Z,56.60
2019-04-09T12:46:21.127Z,56.40
2019-04-09T12:47:24.210Z,57.03
2019-04-09T12:48:28.596Z,57.20
2019-04-09T12:49:33.657Z,56.72
2019-04-09T12:50:37.052Z,57.12
2019-04-09T12:51:41.319Z,56.89
2019-04-09T12:52:46.086Z,56.33
2019-04-09T12:53:49.851Z,56.75
2019-04-09T12:54:54.125Z,56.80
2019-04-09T12:55:58.416Z,56.95
2019-04-09T12:57:03.664Z,56.69
2019-04-09T12:58:06.859Z,57.71
2019-04-09T12:59:11.073Z,58.65
2019-04-09T13:00:16.676Z,58.89
2019-04-09T13:01:20.653Z,57.74
2019-04-09T13:02:31.973Z,58.81
2019-04-09T13:03:29.028Z,57.56
2019-04-09T13:04:32.338Z,56.86
2019-04-09T13:05:36.558Z,56.91
2019-04-09T13:06:40.782Z,57.18
2019-04-09T13:07:45.015Z,56.49
2019-04-09T13:08:49.764Z,57.08
2019-04-09T13:09:53.486Z,53.92
2019-04-09T13:10:58.155Z,54.60
2019-04-09T13:12:02.578Z,55.02
2019-04-09T13:13:06.540Z,54.81
2019-04-09T13:14:11.016Z,54.20
2019-04-09T13:15:14.883Z,54.04
2019-04-09T13:16:19.133Z,53.05
2019-04-09T13:17:23.571Z,53.41
2019-04-09T13:18:27.828Z,53.08
2019-04-09T13:19:31.866Z,51.66
2019-04-09T13:20:36.137Z,51.75
2019-04-09T13:21:41.320Z,52.00
2019-04-09T13:22:44.846Z,52.37
2019-04-09T13:23:49.185Z,52.03
2019-04-09T13:24:53.260Z,51.84
2019-04-09T13:25:57.466Z,51.49
2019-04-09T13:27:02.607Z,51.74
2019-04-09T13:28:06.043Z,52.70
2019-04-09T13:29:10.406Z,52.96
2019-04-09T13:30:15.644Z,54.19
2019-04-09T13:31:18.780Z,54.10
2019-04-09T13:32:34.496Z,51.98
2019-04-09T13:33:27.310Z,51.67
2019-04-09T13:34:31.502Z,51.69
2019-04-09T13:35:36.458Z,51.25
2019-04-09T13:36:40.088Z,51.42
2019-04-09T13:37:44.287Z,51.76
2019-04-09T13:38:49.238Z,51.93
2019-04-09T13:39:52.787Z,52.43
2019-04-09T13:40:57.897Z,51.49
2019-04-09T13:42:02.455Z,51.49
2019-04-09T13:43:05.570Z,50.92
2019-04-09T13:44:09.806Z,51.50
2019-04-09T13:45:14.172Z,52.34
2019-04-09T13:46:18.401Z,51.38
2019-04-09T13:47:23.577Z,50.78